Time;durP1;ratioP1;P1;durP2;ratioP2;P2;SDS_P1;SDS_P2;PMS_P1;PMS_P2;Temp;Humidity;BMP_temperature;BMP_pressure;BME280_temperature;BME280_humidity;BME280_pressure;Samples;Min_cycle;Max_cycle;Signal;HPM_P1;HPM_P2
2022/12/06 09:51:17;;;;;;;;;;;;;;;;;;6100304;23;19958;-86
2022/12/06 09:53:50;;;;;;;;;;;;;;;;;;6127949;23;19920;-82
2022/12/06 09:56:24;;;;;;;2.95;2.33;;;;;;;;;;6127308;23;19963;-81
2022/12/06 09:58:55;;;;;;;3.35;2.50;;;;;;;;;;6127222;23;20010;-80
2022/12/06 10:01:29;;;;;;;2.65;2.10;;;;;;;;;;6127301;23;20089;-80
2022/12/06 10:04:24;;;;;;;2.38;2.20;;;;;;;;;;6125606;23;20029;-80
2022/12/06 10:07:05;;;;;;;2.10;2.00;;;;;;;;;;6126922;23;20013;-81
2022/12/06 10:10:06;;;;;;;2.40;2.20;;;;;;;;;;6127109;23;20001;-81
2022/12/06 10:13:00;;;;;;;2.42;2.20;;;;;;;;;;6127537;23;20005;-80
2022/12/06 10:15:38;;;;;;;2.67;2.47;;;;;;;;;;6099245;23;20006;-80
2022/12/06 10:18:27;;;;;;;2.55;2.30;;;;;;;;;;6126859;23;19998;-81
2022/12/06 10:20:59;;;;;;;;;;;;;;;;;;6127639;23;20016;-77
2022/12/06 10:23:34;;;;;;;;;;;;;;;;;;6125945;23;19951;-75
2022/12/06 10:26:02;;;;;;;;;;;;;;;;;;6127258;23;19915;-74
2022/12/06 10:28:30;;;;;;;;;;;;;;;;;;6127361;23;19948;-82
2022/12/06 10:30:58;;;;;;;;;;;;;;;;;;6127501;23;20317;-83
2022/12/06 10:33:36;;;;;;;;;;;;;;;;;;6127543;23;19915;-79
2022/12/06 10:36:03;;;;;;;;;;;;;;;;;;6127241;23;19916;-75
2022/12/06 10:38:40;;;;;;;;;;;;;;;;;;6127236;23;19920;-76
2022/12/06 10:41:13;;;;;;;;;;;;;;;;;;6127301;23;19956;-81
2022/12/06 10:43:42;;;;;;;;;;;;;;;;;;6127402;23;19913;-80
2022/12/06 10:48:59;;;;;;;;;;;;;;;;;;6127527;23;19931;-82
2022/12/06 10:51:29;;;;;;;;;;;;;;;;;;6127175;23;19912;-76
2022/12/06 10:54:01;;;;;;;;;;;;;;;;;;6128068;23;19916;-80
2022/12/06 10:56:28;;;;;;;;;;;;;;;;;;6128464;23;19909;-77
2022/12/06 10:59:15;;;;;;;2.37;2.17;;;;;;;;;;6128408;23;19987;-95
2022/12/06 11:01:42;;;;;;;2.60;2.20;;;;;;;;;;6127556;23;19909;-80
2022/12/06 11:04:23;;;;;;;4.15;2.45;;;;;;;;;;6127226;23;20117;-93
2022/12/06 11:06:54;;;;;;;2.00;1.90;;;;;;;;;;6127087;23;20040;-80
2022/12/06 11:09:41;;;;;;;2.00;1.90;;;;;;;;;;6127065;23;20012;-79
2022/12/06 11:12:21;;;;;;;2.40;2.20;;;;;;;;;;6126799;23;19998;-90
2022/12/06 11:14:53;;;;;;;2.25;2.00;;;;;;;;;;6126874;23;20078;-89
2022/12/06 11:17:25;;;;;;;1.85;1.73;;;;;;;;;;6126956;23;20012;-88
2022/12/06 11:20:09;;;;;;;2.20;2.00;;;;;;;;;;6127166;23;20414;-78
2022/12/06 11:22:46;;;;;;;2.20;2.00;;;;;;;;;;6128482;23;20002;-77
2022/12/06 11:25:21;;;;;;;2.45;1.85;;;;;;;;;;6128797;23;19998;-80
2022/12/06 11:27:52;;;;;;;2.63;1.90;;;;;;;;;;6128777;23;20002;-88
2022/12/06 11:30:19;;;;;;;2.17;1.98;;;;;;;;;;6128632;23;20029;-78
2022/12/06 11:32:47;;;;;;;2.22;1.75;;;;;;;;;;6128821;23;20002;-77
2022/12/06 11:35:16;;;;;;;2.00;1.90;;;;;;;;;;6128793;23;20485;-76
2022/12/06 11:37:42;;;;;;;;;;;;;;;;;;6128866;23;20002;-76
2022/12/06 11:40:25;;;;;;;1.92;1.80;;;;;;;;;;6128624;23;20038;-83
2022/12/06 11:42:51;;;;;;;1.80;1.70;;;;;;;;;;6128642;23;20039;-76
2022/12/06 11:45:28;;;;;;;1.77;1.67;;;;;;;;;;6128435;23;20002;-76
2022/12/06 11:47:55;;;;;;;2.13;1.98;;;;;;;;;;6128247;23;19998;-83
2022/12/06 11:50:23;;;;;;;2.90;1.55;;;;;;;;;;6128420;23;20080;-85
2022/12/06 11:52:56;;;;;;;1.83;1.73;;;;;;;;;;6128456;23;20017;-80
2022/12/06 11:55:40;;;;;;;2.00;1.80;;;;;;;;;;6128274;23;20006;-76
2022/12/06 11:58:12;;;;;;;3.08;1.90;;;;;;;;;;6128448;23;20002;-78
2022/12/06 12:00:55;;;;;;;2.00;1.80;;;;;;;;;;6128589;23;20134;-76
2022/12/06 12:03:47;;;;;;;2.83;1.73;;;;;;;;;;6128509;23;20038;-75
2022/12/06 12:06:25;;;;;;;2.55;2.17;;;;;;;;;;6124996;23;20045;-82
2022/12/06 12:08:58;;;;;;;1.73;1.63;;;;;;;;;;6128381;23;20006;-86
2022/12/06 12:11:28;;;;;;;3.78;2.10;;;;;;;;;;6128213;23;20005;-87
2022/12/06 12:14:01;;;;;;;1.85;1.70;;;;;;;;;;6128112;23;20002;-87
2022/12/06 12:16:42;;;;;;;2.83;1.90;;;;;;;;;;6128823;23;20062;-77
2022/12/06 12:19:39;;;;;;;1.90;1.80;;;;;;;;;;6128125;23;20334;-78
2022/12/06 12:22:28;;;;;;;1.92;1.77;;;;;;;;;;6128484;23;20028;-77
2022/12/06 12:24:59;;;;;;;2.03;1.80;;;;;;;;;;6128453;23;20013;-88
2022/12/06 12:27:38;;;;;;;1.70;1.60;;;;;;;;;;6127873;23;20084;-78
2022/12/06 12:30:22;;;;;;;1.65;1.55;;;;;;;;;;6128273;23;19998;-77
2022/12/06 12:32:50;;;;;;;4.30;1.60;;;;;;;;;;6127686;23;20476;-83
2022/12/06 12:35:25;;;;;;;1.70;1.60;;;;;;;;;;6127762;23;20002;-83
2022/12/06 12:37:58;;;;;;;;;;;;;;;;;;6128132;23;20477;-80
2022/12/06 12:40:32;;;;;;;2.83;2.15;;;;;;;;;;6128449;23;19907;-80
2022/12/06 12:43:09;;;;;;;2.97;1.70;;;;;;;;;;6128064;23;20365;-76
2022/12/06 12:45:38;;;;;;;1.70;1.60;;;;;;;;;;6127655;23;20045;-76
2022/12/06 17:53:30;;;;;;;;;;;;;;;;;;6123743;23;19956;-87
2022/12/06 17:55:55;;;;;;;;;;;;;;;;;;6128084;23;19917;-90
2022/12/06 17:58:20;;;;;;;;;;;;;;;;;;6127973;23;19917;-86
2022/12/06 18:00:46;;;;;;;;;;;;;;;;;;6126191;23;20300;-80
2022/12/06 18:03:11;;;;;;;;;;;;;;;;;;6127703;23;19984;-82
2022/12/06 18:05:38;;;;;;;;;;;;;;;;;;6127773;23;19912;-90
2022/12/06 18:08:03;;;;;;;;;;;;;;;;;;6129463;23;20252;-88
2022/12/06 18:10:29;;;;;;;;;;;;;;;;;;6127762;23;19920;-85
2022/12/06 18:12:54;;;;;;;;;;;;;;;;;;6128052;23;19936;-83
2022/12/06 18:15:37;;;;;;;;;;;;;;;;;;6127878;23;19976;-83
2022/12/06 18:18:03;;;;;;;;;;;;;;;;;;6127624;23;19913;-82
2022/12/06 18:20:28;;;;;;;;;;;;;;;;;;6127274;23;19913;-78
2022/12/06 18:22:53;;;;;;;;;;;;;;;;;;6127387;23;19924;-75
2022/12/06 18:25:19;;;;;;;;;;;;;;;;;;6127522;23;19959;-78
2022/12/06 18:27:44;;;;;;;;;;;;;;;;;;6127219;23;19924;-78
2022/12/06 18:30:10;;;;;;;;;;;;;;;;;;6126986;23;19968;-78
2022/12/06 18:32:35;;;;;;;;;;;;;;;;;;6127314;23;20384;-78
2022/12/06 18:35:00;;;;;;;;;;;;;;;;;;6127293;23;19991;-78
2022/12/06 18:37:26;;;;;;;;;;;;;;;;;;6127186;23;20317;-82
2022/12/06 18:39:51;;;;;;;;;;;;;;;;;;6127261;23;19913;-79
2022/12/06 18:42:16;;;;;;;;;;;;;;;;;;6127350;23;19913;-80
2022/12/06 18:44:42;;;;;;;;;;;;;;;;;;6127139;23;19913;-80
2022/12/06 18:47:07;;;;;;;;;;;;;;;;;;6127092;23;20015;-86
2022/12/06 18:49:32;;;;;;;;;;;;;;;;;;6127447;23;19913;-78
2022/12/06 18:51:57;;;;;;;;;;;;;;;;;;6127451;23;19992;-78
2022/12/06 18:54:23;;;;;;;;;;;;;;;;;;6151124;23;19916;-78
2022/12/06 18:56:48;;;;;;;;;;;;;;;;;;6156666;23;20035;-78
2022/12/06 18:59:14;;;;;;;;;;;;;;;;;;6156612;23;19921;-83
2022/12/06 19:01:40;;;;;;;;;;;;;;;;;;6156624;23;19912;-82
2022/12/06 19:04:07;;;;;;;;;;;;;;;;;;6156770;23;19913;-77
2022/12/06 19:06:33;;;;;;;;;;;;;;;;;;6156454;23;19912;-78
2022/12/06 19:09:00;;;;;;;;;;;;;;;;;;6156703;23;20384;-79
2022/12/06 19:11:25;;;;;;;;;;;;;;;;;;6156923;23;19919;-80
2022/12/06 19:13:55;;;;;;;;;;;;;;;;;;6156688;23;19999;-77
2022/12/06 19:16:22;;;;;;;;;;;;;;;;;;6155222;23;20233;-80
2022/12/06 19:18:48;;;;;;;;;;;;;;;;;;6157063;23;19913;-80
2022/12/06 19:21:14;;;;;;;;;;;;;;;;;;6156650;23;19913;-83
2022/12/06 19:23:39;;;;;;;;;;;;;;;;;;6157194;23;19959;-88
2022/12/06 19:26:05;;;;;;;;;;;;;;;;;;6156572;23;20231;-83
2022/12/06 19:28:30;;;;;;;;;;;;;;;;;;6156643;23;19913;-79
2022/12/06 19:30:57;;;;;;;;;;;;;;;;;;6156692;23;19919;-80
2022/12/06 19:33:22;;;;;;;;;;;;;;;;;;6154870;23;19913;-84
2022/12/06 19:36:01;;;;;;;;;;;;;;;;;;6157493;23;20347;-80
2022/12/06 19:38:27;;;;;;;;;;;;;;;;;;6156471;23;19913;-85
2022/12/06 19:40:53;;;;;;;;;;;;;;;;;;6156327;23;19955;-84
2022/12/06 19:46:14;;;;;;;;;;;;;;;;;;6158363;23;20004;-85
2022/12/06 19:48:39;;;;;;;;;;;;;;;;;;6158539;23;19944;-85
2022/12/06 19:51:05;;;;;;;;;;;;;;;;;;6158125;23;20343;-84
2022/12/06 19:53:31;;;;;;;;;;;;;;;;;;6158185;23;20244;-81
2022/12/06 19:55:57;;;;;;;;;;;;;;;;;;6158421;23;19923;-80
2022/12/06 19:58:22;;;;;;;;;;;;;;;;;;6158435;23;19913;-84
2022/12/06 20:00:49;;;;;;;;;;;;;;;;;;6157101;23;19912;-85
2022/12/06 20:03:14;;;;;;;;;;;;;;;;;;6158443;23;19913;-79
2022/12/06 20:05:40;;;;;;;;;;;;;;;;;;6158209;23;19958;-79
2022/12/06 20:08:05;;;;;;;;;;;;;;;;;;6158080;23;19913;-78
2022/12/06 20:10:34;;;;;;;;;;;;;;;;;;6158157;23;20003;-82
2022/12/06 20:12:59;;;;;;;;;;;;;;;;;;6158240;23;19992;-78
2022/12/06 20:15:24;;;;;;;;;;;;;;;;;;6158239;23;19912;-77
2022/12/06 20:17:50;;;;;;;;;;;;;;;;;;6158076;23;19936;-83
2022/12/06 20:20:15;;;;;;;;;;;;;;;;;;6158098;23;19919;-78
2022/12/06 20:22:40;;;;;;;;;;;;;;;;;;6158179;23;19916;-84
2022/12/06 20:25:07;;;;;;;;;;;;;;;;;;6158156;23;19912;-85
2022/12/06 20:27:50;;;;;;;;;;;;;;;;;;6157960;23;19939;-84
2022/12/06 20:30:24;;;;;;;;;;;;;;;;;;6157986;23;20317;-78
2022/12/06 20:32:50;;;;;;;;;;;;;;;;;;6157985;23;20350;-86
2022/12/06 20:35:15;;;;;;;;;;;;;;;;;;6158028;23;19988;-92
2022/12/06 20:37:41;;;;;;;;;;;;;;;;;;6158535;23;20347;-84
2022/12/06 20:40:07;;;;;;;;;;;;;;;;;;6157905;23;19950;-82
2022/12/06 20:42:33;;;;;;;;;;;;;;;;;;6157931;23;20387;-79
2022/12/06 20:44:58;;;;;;;;;;;;;;;;;;6157938;23;19912;-84
2022/12/06 20:47:23;;;;;;;;;;;;;;;;;;6157740;23;20003;-80
2022/12/06 20:49:49;;;;;;;;;;;;;;;;;;6157933;23;19913;-80
2022/12/06 20:52:14;;;;;;;;;;;;;;;;;;6158416;23;20265;-84
2022/12/06 20:54:39;;;;;;;;;;;;;;;;;;6157551;23;19921;-81
2022/12/06 20:57:07;;;;;;;;;;;;;;;;;;6158083;23;19958;-84
2022/12/06 20:59:33;;;;;;;;;;;;;;;;;;6157818;23;20391;-84
2022/12/06 21:01:58;;;;;;;;;;;;;;;;;;6157727;23;19913;-80
2022/12/06 21:04:25;;;;;;;;;;;;;;;;;;6157803;23;19996;-84
2022/12/06 21:06:50;;;;;;;;;;;;;;;;;;6157481;23;19912;-80
2022/12/06 21:09:16;;;;;;;;;;;;;;;;;;6157685;23;19919;-83
2022/12/06 21:11:41;;;;;;;;;;;;;;;;;;6157691;23;19916;-79
2022/12/06 21:14:06;;;;;;;;;;;;;;;;;;6157821;23;19956;-82
2022/12/06 21:16:33;;;;;;;;;;;;;;;;;;6157492;23;19913;-82
2022/12/06 21:19:00;;;;;;;;;;;;;;;;;;6158058;23;19913;-90
2022/12/06 21:21:31;;;;;;;;;;;;;;;;;;6154762;23;19913;-84
2022/12/06 21:24:00;;;;;;;;;;;;;;;;;;6157457;23;19920;-82
2022/12/06 21:26:25;;;;;;;;;;;;;;;;;;6157494;23;19996;-81
2022/12/06 21:28:51;;;;;;;;;;;;;;;;;;6157439;23;20379;-82
2022/12/06 21:31:17;;;;;;;;;;;;;;;;;;6157164;23;19992;-80
2022/12/06 21:33:42;;;;;;;;;;;;;;;;;;6157640;23;19991;-83
2022/12/06 21:36:09;;;;;;;;;;;;;;;;;;6157378;23;19920;-79
2022/12/06 21:38:34;;;;;;;;;;;;;;;;;;6157193;23;20320;-85
2022/12/06 21:41:07;;;;;;;;;;;;;;;;;;6157129;23;19912;-81
2022/12/06 21:43:32;;;;;;;;;;;;;;;;;;6157441;23;19923;-83
2022/12/06 21:46:09;;;;;;;;;;;;;;;;;;6130853;23;19913;-84
2022/12/06 21:48:34;;;;;;;;;;;;;;;;;;6157012;23;19959;-79
2022/12/06 21:51:04;;;;;;;;;;;;;;;;;;6157164;23;19944;-83
2022/12/06 21:53:29;;;;;;;;;;;;;;;;;;6157329;23;20325;-79
2022/12/06 21:55:55;;;;;;;;;;;;;;;;;;6157003;23;19940;-80
2022/12/06 21:58:20;;;;;;;;;;;;;;;;;;6157040;23;20332;-80
2022/12/06 22:00:46;;;;;;;;;;;;;;;;;;6157111;23;19913;-83
2022/12/06 22:03:11;;;;;;;;;;;;;;;;;;6130980;23;19916;-80
2022/12/06 22:05:40;;;;;;;;;;;;;;;;;;6156739;23;19912;-85
2022/12/06 22:08:06;;;;;;;;;;;;;;;;;;6157167;23;20309;-83
2022/12/06 22:10:31;;;;;;;;;;;;;;;;;;6156673;23;19924;-81
2022/12/06 22:12:56;;;;;;;;;;;;;;;;;;6156817;23;20324;-81
2022/12/06 22:15:22;;;;;;;;;;;;;;;;;;6156963;23;20233;-80
2022/12/06 22:17:47;;;;;;;;;;;;;;;;;;6157270;23;19913;-79
2022/12/06 22:20:12;;;;;;;;;;;;;;;;;;6157052;23;19913;-80
2022/12/06 22:22:38;;;;;;;;;;;;;;;;;;6157211;23;19919;-83
2022/12/06 22:25:03;;;;;;;;;;;;;;;;;;6157003;23;19912;-85
2022/12/06 22:27:28;;;;;;;;;;;;;;;;;;6156959;23;19983;-83
